sensor_id;sensor_type;location;lat;lon;timestamp;pressure;altitude;pressure_sealevel;temperature;humidity
30421;BME280;17218;54.070;10.012;2023-02-18T20:10:25;101976.59;;;2.04;100.00
30421;BME280;17218;54.070;10.012;2023-02-18T20:12:53;101985.50;;;2.31;100.00
30421;BME280;17218;54.070;10.012;2023-02-18T20:15:20;101988.25;;;2.54;100.00
30421;BME280;17218;54.070;10.012;2023-02-18T20:17:47;101988.75;;;2.65;100.00
30421;BME280;17218;54.070;10.012;2023-02-18T20:20:14;101997.19;;;2.82;100.00
30421;BME280;17218;54.070;10.012;2023-02-18T20:22:41;101991.06;;;2.98;100.00
30421;BME280;17218;54.070;10.012;2023-02-18T20:25:08;101994.25;;;3.12;100.00
30421;BME280;17218;54.070;10.012;2023-02-18T20:27:36;101982.03;;;3.26;100.00
30421;BME280;17218;54.070;10.012;2023-02-18T20:30:03;101978.19;;;3.36;100.00
30421;BME280;17218;54.070;10.012;2023-02-18T20:32:29;101974.53;;;3.51;100.00
30421;BME280;17218;54.070;10.012;2023-02-18T20:34:56;101975.66;;;3.57;100.00
30421;BME280;17218;54.070;10.012;2023-02-18T20:37:22;101965.91;;;3.70;100.00
30421;BME280;17218;54.070;10.012;2023-02-18T20:39:49;101967.91;;;3.77;100.00
30421;BME280;17218;54.070;10.012;2023-02-18T20:42:15;101965.09;;;3.71;100.00
30421;BME280;17218;54.070;10.012;2023-02-18T20:44:44;101943.97;;;3.77;100.00
30421;BME280;17218;54.070;10.012;2023-02-18T20:47:10;101921.19;;;3.85;100.00
30421;BME280;17218;54.070;10.012;2023-02-18T20:49:37;101905.38;;;3.95;100.00
30421;BME280;17218;54.070;10.012;2023-02-18T20:52:04;101893.19;;;3.89;100.00
30421;BME280;17218;54.070;10.012;2023-02-18T20:54:32;101854.22;;;3.75;100.00
30421;BME280;17218;54.070;10.012;2023-02-18T20:56:58;101839.25;;;3.86;100.00
30421;BME280;17218;54.070;10.012;2023-02-18T20:59:26;101818.00;;;3.90;100.00
30421;BME280;17218;54.070;10.012;2023-02-18T21:01:55;101795.22;;;3.98;100.00
30421;BME280;17218;54.070;10.012;2023-02-18T21:04:21;101768.84;;;4.01;100.00
30421;BME280;17218;54.070;10.012;2023-02-18T21:06:48;101762.19;;;4.06;100.00
30421;BME280;17218;54.070;10.012;2023-02-18T21:09:15;101745.97;;;4.07;100.00
30421;BME280;17218;54.070;10.012;2023-02-18T21:11:42;101703.16;;;4.04;100.00
30421;BME280;17218;54.070;10.012;2023-02-18T21:14:10;101678.97;;;3.98;100.00
30421;BME280;17218;54.070;10.012;2023-02-18T21:16:37;101674.72;;;3.98;100.00
30421;BME280;17218;54.070;10.012;2023-02-18T21:19:05;101667.31;;;4.06;100.00
30421;BME280;17218;54.070;10.012;2023-02-18T21:21:32;101642.59;;;4.08;100.00
30421;BME280;17218;54.070;10.012;2023-02-18T21:23:59;101644.94;;;4.02;100.00
30421;BME280;17218;54.070;10.012;2023-02-18T21:26:26;101638.13;;;4.02;100.00
30421;BME280;17218;54.070;10.012;2023-02-18T21:28:54;101627.97;;;4.05;100.00
30421;BME280;17218;54.070;10.012;2023-02-18T21:31:24;101617.25;;;4.17;100.00
30421;BME280;17218;54.070;10.012;2023-02-18T21:33:50;101621.78;;;4.25;100.00
30421;BME280;17218;54.070;10.012;2023-02-18T21:36:19;101617.81;;;4.35;100.00
30421;BME280;17218;54.070;10.012;2023-02-18T21:38:50;101584.59;;;4.12;100.00
30421;BME280;17218;54.070;10.012;2023-02-18T21:41:16;101565.28;;;3.71;100.00
30421;BME280;17218;54.070;10.012;2023-02-18T21:43:43;101565.25;;;3.69;100.00
30421;BME280;17218;54.070;10.012;2023-02-18T21:46:13;101577.13;;;3.67;100.00
30421;BME280;17218;54.070;10.012;2023-02-18T21:48:40;101584.97;;;3.72;100.00
30421;BME280;17218;54.070;10.012;2023-02-18T21:51:25;101585.91;;;3.74;100.00
30421;BME280;17218;54.070;10.012;2023-02-18T21:54:10;101588.56;;;3.77;100.00
30421;BME280;17218;54.070;10.012;2023-02-18T21:56:36;101577.50;;;3.78;100.00
30421;BME280;17218;54.070;10.012;2023-02-18T21:59:03;101557.72;;;3.50;100.00
30421;BME280;17218;54.070;10.012;2023-02-18T22:01:29;101567.34;;;3.57;100.00
30421;BME280;17218;54.070;10.012;2023-02-18T22:03:56;101572.59;;;3.60;100.00
30421;BME280;17218;54.070;10.012;2023-02-18T22:06:23;101566.19;;;3.47;100.00
30421;BME280;17218;54.070;10.012;2023-02-18T22:08:51;101585.16;;;3.29;100.00
30421;BME280;17218;54.070;10.012;2023-02-18T22:11:18;101583.78;;;3.38;100.00
30421;BME280;17218;54.070;10.012;2023-02-18T22:13:44;101576.50;;;3.26;100.00
30421;BME280;17218;54.070;10.012;2023-02-18T22:16:11;101577.72;;;3.36;100.00
30421;BME280;17218;54.070;10.012;2023-02-18T22:18:37;101576.31;;;3.44;100.00
30421;BME280;17218;54.070;10.012;2023-02-18T22:21:06;101579.88;;;3.48;100.00
30421;BME280;17218;54.070;10.012;2023-02-18T22:23:32;101574.84;;;3.51;100.00
30421;BME280;17218;54.070;10.012;2023-02-18T22:26:03;101564.75;;;3.55;100.00
30421;BME280;17218;54.070;10.012;2023-02-18T22:28:29;101552.75;;;3.54;100.00
30421;BME280;17218;54.070;10.012;2023-02-18T22:30:56;101539.34;;;3.62;100.00
30421;BME280;17218;54.070;10.012;2023-02-18T22:33:22;101513.53;;;3.57;100.00
30421;BME280;17218;54.070;10.012;2023-02-18T22:35:49;101516.44;;;3.66;100.00
30421;BME280;17218;54.070;10.012;2023-02-18T22:38:15;101514.09;;;3.73;100.00
30421;BME280;17218;54.070;10.012;2023-02-18T22:40:41;101508.75;;;3.66;100.00
30421;BME280;17218;54.070;10.012;2023-02-18T22:43:09;101515.00;;;3.75;100.00
30421;BME280;17218;54.070;10.012;2023-02-18T22:45:36;101509.84;;;3.73;100.00
30421;BME280;17218;54.070;10.012;2023-02-18T22:48:02;101480.69;;;3.69;100.00
30421;BME280;17218;54.070;10.012;2023-02-18T22:50:29;101470.97;;;3.61;100.00
30421;BME280;17218;54.070;10.012;2023-02-18T22:52:55;101490.44;;;3.55;100.00
30421;BME280;17218;54.070;10.012;2023-02-18T22:55:22;101489.94;;;3.66;100.00
30421;BME280;17218;54.070;10.012;2023-02-18T22:57:48;101489.63;;;3.56;100.00
30421;BME280;17218;54.070;10.012;2023-02-18T23:00:16;101492.56;;;3.67;100.00
30421;BME280;17218;54.070;10.012;2023-02-18T23:02:49;101500.59;;;3.78;100.00
30421;BME280;17218;54.070;10.012;2023-02-18T23:05:15;101492.91;;;3.78;100.00
30421;BME280;17218;54.070;10.012;2023-02-18T23:07:42;101474.97;;;3.78;100.00
30421;BME280;17218;54.070;10.012;2023-02-18T23:10:08;101468.38;;;3.87;100.00
30421;BME280;17218;54.070;10.012;2023-02-18T23:12:35;101473.00;;;3.97;100.00
30421;BME280;17218;54.070;10.012;2023-02-18T23:15:01;101453.59;;;4.05;100.00
30421;BME280;17218;54.070;10.012;2023-02-18T23:17:29;101456.78;;;3.98;100.00
30421;BME280;17218;54.070;10.012;2023-02-18T23:19:56;101439.97;;;4.07;100.00
30421;BME280;17218;54.070;10.012;2023-02-18T23:22:24;101439.28;;;4.12;100.00
30421;BME280;17218;54.070;10.012;2023-02-18T23:24:52;101441.63;;;4.04;100.00
30421;BME280;17218;54.070;10.012;2023-02-18T23:27:19;101439.19;;;4.09;100.00
30421;BME280;17218;54.070;10.012;2023-02-18T23:29:45;101441.16;;;4.18;100.00
30421;BME280;17218;54.070;10.012;2023-02-18T23:32:12;101442.59;;;4.08;100.00
30421;BME280;17218;54.070;10.012;2023-02-18T23:34:40;101426.41;;;4.11;100.00
30421;BME280;17218;54.070;10.012;2023-02-18T23:37:07;101432.56;;;4.16;100.00
30421;BME280;17218;54.070;10.012;2023-02-18T23:39:33;101434.16;;;4.12;100.00
30421;BME280;17218;54.070;10.012;2023-02-18T23:42:00;101433.38;;;4.15;100.00
30421;BME280;17218;54.070;10.012;2023-02-18T23:44:27;101424.75;;;4.13;100.00
30421;BME280;17218;54.070;10.012;2023-02-18T23:46:53;101426.50;;;4.14;100.00
30421;BME280;17218;54.070;10.012;2023-02-18T23:49:22;101436.47;;;4.04;100.00
30421;BME280;17218;54.070;10.012;2023-02-18T23:51:51;101436.66;;;4.11;100.00
30421;BME280;17218;54.070;10.012;2023-02-18T23:54:18;101437.56;;;4.13;100.00
30421;BME280;17218;54.070;10.012;2023-02-18T23:56:45;101434.50;;;4.23;100.00
30421;BME280;17218;54.070;10.012;2023-02-18T23:59:12;101431.97;;;4.25;100.00
